Thunder radar more information blitzortung!


Radar de pluja more information rain snow radar


Visita la nostra xarxa de llocs de meteo:

Template documentation
and downloads

And another site



No particular awareness of the weather is required.    There are no Weather-warnings

Pagina Historial Weather Underground text

Diari Resum Agost 31, 2017 Unitats:  Mètric    Imperial   Tant
« Previous Dia
SegĂźent Dia »
Diari Setmana Mensual Anual Personalitzada
  Maxima: Minima: Media:
Temperatura: -17.8 °C -7.7 °C -6.3 °C
Punt de rosada: -17.8 °C -9.3 °C -8.3 °C
Humitat: Humidity % 73 % 79 %
Wind Speed: 0 km/h 0 km/h 9.8 km/h
RĂ fegues de vent: 0 km/h - -
Vent:- - ESE
Pression baro: 0 hPa 34293.4 hPa -
Precipitacions: 134.62 mm    
Historical Graphs
 
 
Dades de taula per Agost 31, 2017
Temps Temperatura Punt de rosada Pression baro Vent Wind Speed RĂ fegues de vent Humitat Rainfall Rate (Hourly)
-17.8 °C -17.8 °C 0 hPa Calm     Humidity % 0 mm
00:00 -6.3 °C -8.3 °C 34327.3 hPa SSW 2.6 km/h 5.1 km/h 80 % 0 mm
00:03 -5.9 °C -8.4 °C 34293.4 hPa SW 3.1 km/h   76 % 0 mm
00:08 -5.9 °C -8.4 °C 34293.4 hPa Calm     76 % 0 mm
00:10 -6.4 °C -8.4 °C 34327.3 hPa Calm     80 % 0 mm
00:20 -6.4 °C -8.4 °C 34293.4 hPa Calm     80 % 0 mm
00:30 -6.3 °C -8.3 °C 34327.3 hPa Calm   2.6 km/h 80 % 0 mm
00:40 -6.3 °C -8.3 °C 34327.3 hPa Calm   5.1 km/h 80 % 0 mm
00:50 -6.3 °C -8.3 °C 34327.3 hPa Calm   2.6 km/h 80 % 0 mm
01:00 -6.3 °C -8.3 °C 34327.3 hPa Calm     80 % 0 mm
01:10 -6.3 °C -8.2 °C 34327.3 hPa Calm     81 % 0 mm
01:20 -6.4 °C -8.3 °C 34327.3 hPa WSW 2.6 km/h 5.1 km/h 81 % 0 mm
01:30 -6.4 °C -8.3 °C 34293.4 hPa West 2.6 km/h 2.6 km/h 81 % 0 mm
01:40 -6.4 °C -8.3 °C 34293.4 hPa Calm   2.6 km/h 81 % 0 mm
01:50 -6.5 °C -8.4 °C 34293.4 hPa Calm   2.6 km/h 81 % 0 mm
02:00 -6.6 °C -8.3 °C 34327.3 hPa WSW 2.6 km/h 5.1 km/h 82 % 0 mm
02:10 -6.7 °C -8.4 °C 34327.3 hPa SW 2.6 km/h 5.1 km/h 83 % 0 mm
02:20 -6.7 °C -8.3 °C 34327.3 hPa Calm   2.6 km/h 84 % 0 mm
02:30 -6.7 °C -8.4 °C 34327.3 hPa SW 5.1 km/h 7.7 km/h 82 % 0 mm
02:40 -6.7 °C -8.3 °C 34327.3 hPa Calm   7.7 km/h 84 % 0 mm
02:50 -6.7 °C -8.1 °C 34327.3 hPa WNW 2.6 km/h 2.6 km/h 85 % 0 mm
03:00 -6.7 °C -8.1 °C 34327.3 hPa Calm   2.6 km/h 85 % 0 mm
03:10 -6.7 °C -8.2 °C 34327.3 hPa NNE 7.7 km/h 7.7 km/h 85 % 0 mm
03:20 -6.7 °C -8.2 °C 34327.3 hPa NE 5.1 km/h 10.3 km/h 85 % 0 mm
03:30 -6.7 °C -8.2 °C 34327.3 hPa NE 2.6 km/h 7.7 km/h 85 % 0 mm
03:40 -6.7 °C -8.2 °C 34327.3 hPa NNE 7.7 km/h 10.3 km/h 85 % 0 mm
08:41 -6.7 °C -7.9 °C 34361.1 hPa WSW 11.9 km/h 11.9 km/h 87 % 0 mm
08:42 -6.7 °C -7.9 °C 34361.1 hPa WSW 6 km/h 6 km/h 87 % 0 mm
08:45 -6.7 °C -7.9 °C 34361.1 hPa WSW 3.1 km/h   87 % 0 mm
08:50 -6.7 °C -7.8 °C 34361.1 hPa Calm     88 % 0 mm
08:55 -6.6 °C -7.7 °C 34361.1 hPa ENE 9 km/h 9 km/h 88 % 0 mm
09:00 -6.7 °C -7.8 °C 34361.1 hPa East 6 km/h 6 km/h 88 % 0 mm
09:05 -6.7 °C -7.8 °C 34361.1 hPa ENE 6.8 km/h 6.8 km/h 88 % 0 mm
09:06 -6.7 °C -7.9 °C 34361.1 hPa ENE 6 km/h 6 km/h 87 % 0 mm
09:11 -6.6 °C -7.8 °C 34361.1 hPa East 3.1 km/h 3.7 km/h 87 % 0 mm
09:16 -6.6 °C -7.8 °C 34361.1 hPa ENE 9 km/h 9 km/h 87 % 0 mm
09:21 -6.6 °C -7.9 °C 34361.1 hPa NNE 11.9 km/h 11.9 km/h 86 % 0 mm
09:26 -6.6 °C -7.9 °C 34361.1 hPa NE 6 km/h 6 km/h 86 % 0 mm
09:31 -6.4 °C -7.7 °C 34361.1 hPa North 6 km/h 6 km/h 87 % 0 mm
09:36 -6.4 °C -7.7 °C 34361.1 hPa WNW 6 km/h 6 km/h 87 % 0 mm
09:41 -6.4 °C -7.7 °C 34395 hPa WNW 3.1 km/h   87 % 0 mm
09:46 -6.4 °C -7.7 °C 34395 hPa NE 5.1 km/h 5.1 km/h 87 % 0 mm
09:51 -6.4 °C -7.8 °C 34395 hPa Calm     86 % 0 mm
09:56 -6.4 °C -7.7 °C 34395 hPa Calm     86 % 0 mm
10:01 -6.4 °C -7.8 °C 34395 hPa NE 3.1 km/h 3.1 km/h 86 % 0 mm
10:06 -6.4 °C -7.7 °C 34395 hPa Calm     86 % 0 mm
10:11 -6.3 °C -7.6 °C 34395 hPa WSW 6 km/h 6 km/h 87 % 0 mm
10:16 -6.3 °C -7.6 °C 34395 hPa SW 6 km/h 6 km/h 87 % 0 mm
10:21 -6.4 °C -7.7 °C 34395 hPa SW 6 km/h 6 km/h 86 % 0 mm
10:26 -6.4 °C -7.6 °C 34428.8 hPa SSW 6 km/h 6 km/h 87 % 0 mm
10:31 -6.3 °C -7.6 °C 34428.8 hPa SSW 3.1 km/h   87 % 0 mm
10:36 -6.3 °C -7.6 °C 34428.8 hPa West 3.1 km/h 3.1 km/h 87 % 0 mm
10:41 -6.3 °C -7.6 °C 34428.8 hPa WSW 2.3 km/h   87 % 0 mm
10:46 -6.3 °C -7.7 °C 34428.8 hPa Calm     86 % 0 mm
10:51 -6.3 °C -7.6 °C 34428.8 hPa Calm     86 % 0 mm
10:56 -6.2 °C -7.6 °C 34395 hPa NE 6 km/h 6 km/h 86 % 0 mm
11:01 -6.2 °C -7.6 °C 34395 hPa NNE 8.5 km/h 8.5 km/h 86 % 0 mm
11:06 -6.1 °C -7.6 °C 34395 hPa NNE 6.8 km/h   85 % 0 mm
11:11 -6.2 °C -7.8 °C 34395 hPa ENE 3.1 km/h   84 % 0 mm
11:16 -6.2 °C -7.9 °C 34395 hPa NNE 6.3 km/h 6.3 km/h 83 % 0 mm
11:21 -6.2 °C -8 °C 34395 hPa Calm     82 % 0 mm
11:26 -6.1 °C -7.9 °C 34395 hPa Calm     82 % 0 mm
11:31 -6.1 °C -7.9 °C 34395 hPa WNW 3.1 km/h   82 % 0 mm
11:36 -6.1 °C -7.8 °C 34395 hPa WNW 3.7 km/h   82 % 0 mm
11:41 -6 °C -7.8 °C 34395 hPa West 6 km/h 6 km/h 82 % 0 mm
11:46 -5.9 °C -7.7 °C 34395 hPa Calm     82 % 0 mm
11:51 -5.9 °C -7.8 °C 34395 hPa SW 9 km/h 9 km/h 81 % 0 mm
11:56 -5.9 °C -7.8 °C 34395 hPa West 5.1 km/h 5.1 km/h 81 % 0 mm
12:01 -5.8 °C -7.8 °C 34395 hPa SW 3.1 km/h 3.1 km/h 80 % 0 mm
12:06 -5.8 °C -7.8 °C 34395 hPa SW 3.7 km/h 3.7 km/h 80 % 0 mm
12:11 -5.7 °C -7.8 °C 34395 hPa South 4.2 km/h   79 % 0 mm
12:16 -5.7 °C -7.8 °C 34395 hPa Calm     79 % 0 mm
12:21 -5.7 °C -7.9 °C 34395 hPa Calm     78 % 0 mm
12:26 -5.7 °C -7.9 °C 34428.8 hPa Calm     78 % 0 mm
12:31 -5.6 °C -7.7 °C 34428.8 hPa SW 4.2 km/h   79 % 0 mm
12:36 -5.6 °C -7.6 °C 34428.8 hPa West 3.1 km/h 3.1 km/h 80 % 0 mm
12:41 -5.7 °C -7.7 °C 34428.8 hPa WNW 6 km/h 6 km/h 80 % 0 mm
12:46 -5.7 °C -7.7 °C 34428.8 hPa NNE 6.3 km/h 6.3 km/h 80 % 0 mm
12:51 -5.7 °C -7.7 °C 34428.8 hPa WSW 6 km/h 6 km/h 80 % 0 mm
12:56 -5.6 °C -7.6 °C 34428.8 hPa ENE 3.7 km/h   80 % 0 mm
13:01 -5.6 °C -7.6 °C 34428.8 hPa WNW 3.1 km/h   80 % 0 mm
13:06 -5.5 °C -7.5 °C 34428.8 hPa SW 6 km/h   80 % 0 mm
13:11 -5.5 °C -7.7 °C 34428.8 hPa SSW 6 km/h 6 km/h 78 % 0 mm
13:16 -5.5 °C -7.8 °C 34428.8 hPa NNE 3.1 km/h 3.1 km/h 77 % 0 mm
13:21 -5.5 °C -7.8 °C 34428.8 hPa Calm     77 % 0 mm
13:26 -5.4 °C -7.7 °C 34395 hPa ENE 6 km/h 6 km/h 77 % 0 mm
13:31 -5.4 °C -7.8 °C 34395 hPa ENE 6 km/h 6 km/h 76 % 0 mm
13:36 -5.3 °C -7.7 °C 34395 hPa ENE 9 km/h 9 km/h 76 % 0 mm
13:41 -5.1 °C -7.6 °C 34395 hPa ENE 9 km/h 9 km/h 76 % 0 mm
13:46 -5.1 °C -7.7 °C 34395 hPa ESE 11.9 km/h 11.9 km/h 75 % 0 mm
13:51 -5.1 °C -7.7 °C 34395 hPa SE 11.9 km/h 11.9 km/h 75 % 0 mm
13:56 -5.2 °C -7.7 °C 34395 hPa ESE 15 km/h 15 km/h 75 % 0 mm
14:01 -5.2 °C -7.7 °C 34395 hPa ESE 15 km/h 15 km/h 75 % 0 mm
14:06 -5.2 °C -7.7 °C 34395 hPa East 17.9 km/h 17.9 km/h 76 % 0 mm
14:11 -5.2 °C -7.7 °C 34428.8 hPa ESE 29.8 km/h 29.8 km/h 76 % 0 mm
14:16 -5.3 °C -7.6 °C 34428.8 hPa ESE 23.8 km/h 23.8 km/h 77 % 0 mm
14:21 -5.3 °C -7.6 °C 34428.8 hPa ESE 23.8 km/h 23.8 km/h 77 % 0 mm
14:26 -5.5 °C -7.8 °C 34462.7 hPa SE 23.8 km/h 23.8 km/h 77 % 0 mm
14:31 -5.7 °C -8 °C 34462.7 hPa ESE 26.9 km/h 26.9 km/h 77 % 0 mm
14:36 -5.9 °C -8.2 °C 34462.7 hPa East 23.8 km/h 23.8 km/h 77 % 0 mm
14:41 -5.9 °C -8.2 °C 34462.7 hPa NNE 15 km/h 15 km/h 77 % 0 mm
14:46 -6 °C -8.3 °C 34462.7 hPa ESE 20.9 km/h 20.9 km/h 77 % 0 mm
14:51 -6.2 °C -8.3 °C 34462.7 hPa East 11.9 km/h 11.9 km/h 79 % 25.4 mm
14:56 -6.4 °C -8.4 °C 34462.7 hPa ENE 9 km/h 9 km/h 80 % 25.4 mm
15:01 -6.3 °C -8.2 °C 34462.7 hPa ESE 11.9 km/h 11.9 km/h 81 % 25.4 mm
15:06 -6.3 °C -8.2 °C 34462.7 hPa East 6 km/h 6 km/h 81 % 25.4 mm
15:11 -6.3 °C -8.2 °C 34462.7 hPa North 9 km/h 9 km/h 81 % 58.42 mm
15:16 -6.2 °C -8 °C 34462.7 hPa Calm     82 % 83.82 mm
15:21 -6.4 °C -8.2 °C 34462.7 hPa NE 6 km/h 6 km/h 82 % 83.82 mm
15:26 -6.4 °C -8.2 °C 34428.8 hPa NE 6 km/h 6 km/h 82 % 134.62 mm
15:31 -6.2 °C -7.8 °C 34428.8 hPa ENE 15 km/h 15 km/h 83 % 134.62 mm
15:33 -6.1 °C -7.8 °C 34428.8 hPa NNE 15 km/h 15 km/h 83 % 134.62 mm
15:38 -6.1 °C -7.8 °C 34428.8 hPa ESE 20.9 km/h 20.9 km/h 82 % 134.62 mm
15:43 -5.9 °C -7.8 °C 34462.7 hPa NNE 9 km/h 9 km/h 81 % 134.62 mm
15:48 -5.8 °C -7.8 °C 34462.7 hPa ENE 15 km/h 15 km/h 80 % 109.22 mm
15:53 -5.7 °C -7.7 °C 34462.7 hPa ENE 17.9 km/h 17.9 km/h 80 % 109.22 mm
15:58 -5.7 °C -7.7 °C 34462.7 hPa ESE 15 km/h 15 km/h 80 % 109.22 mm
16:03 -5.6 °C -7.9 °C 34462.7 hPa East 23.8 km/h 23.8 km/h 77 % 109.22 mm
16:08 -5.4 °C -7.9 °C 34462.7 hPa East 29.8 km/h 29.8 km/h 76 % 76.2 mm
16:13 -5.5 °C -8.2 °C 34462.7 hPa ESE 17.9 km/h 17.9 km/h 74 % 76.2 mm
16:18 -5.6 °C -8.2 °C 34462.7 hPa SSW 26.9 km/h 26.9 km/h 74 % 50.8 mm
16:23 -5.7 °C -8.2 °C 34462.7 hPa East 26.9 km/h 26.9 km/h 75 % 25.4 mm
16:28 -5.7 °C -8.2 °C 34395 hPa NE 26.9 km/h 26.9 km/h 75 % 0 mm
16:33 -5.6 °C -8.2 °C 34395 hPa ESE 23.8 km/h 23.8 km/h 75 % 0 mm
16:38 -5.4 °C -8.1 °C 34395 hPa East 23.8 km/h 23.8 km/h 74 % 0 mm
16:43 -5.2 °C -7.9 °C 34395 hPa ESE 17.9 km/h 17.9 km/h 74 % 0 mm
16:48 -5.2 °C -8 °C 34395 hPa ESE 23.8 km/h 23.8 km/h 73 % 0 mm
16:53 -5.3 °C -8.1 °C 34395 hPa East 23.8 km/h 23.8 km/h 73 % 0 mm
16:58 -5.4 °C -8.2 °C 34395 hPa ESE 23.8 km/h 23.8 km/h 73 % 0 mm
17:03 -5.4 °C -8.2 °C 34395 hPa ESE 15 km/h 15.3 km/h 73 % 0 mm
17:08 -5.4 °C -8.2 °C 34395 hPa ESE 23.8 km/h 23.8 km/h 73 % 0 mm
17:13 -5.4 °C -8.3 °C 34395 hPa ESE 20.9 km/h 20.9 km/h 73 % 0 mm
17:18 -5.4 °C -8.1 °C 34395 hPa SE 26.9 km/h 26.9 km/h 74 % 0 mm
17:23 -5.5 °C -8.2 °C 34428.8 hPa SE 26.9 km/h 26.9 km/h 74 % 0 mm
17:28 -5.6 °C -8.2 °C 34428.8 hPa ESE 23.8 km/h 23.8 km/h 75 % 0 mm
17:33 -5.7 °C -8.3 °C 34428.8 hPa ESE 26.9 km/h 26.9 km/h 75 % 0 mm
17:38 -5.8 °C -8.3 °C 34462.7 hPa ESE 29.8 km/h 29.8 km/h 76 % 0 mm
17:43 -5.9 °C -8.3 °C 34462.7 hPa SE 20.9 km/h 20.9 km/h 76 % 0 mm
17:48 -5.9 °C -8.4 °C 34462.7 hPa East 18.3 km/h 18.3 km/h 76 % 0 mm
17:53 -6.1 °C -8.5 °C 34428.8 hPa SE 22 km/h 22 km/h 76 % 0 mm
17:58 -6.1 °C -8.4 °C 34428.8 hPa ENE 20.9 km/h 20.9 km/h 77 % 0 mm
18:03 -6.2 °C -8.4 °C 34428.8 hPa East 32.8 km/h 32.8 km/h 78 % 0 mm
18:08 -6.2 °C -8.4 °C 34428.8 hPa ESE 26.9 km/h 26.9 km/h 78 % 0 mm
18:13 -6.2 °C -8.4 °C 34428.8 hPa East 23.8 km/h 23.8 km/h 78 % 0 mm
18:18 -6.2 °C -8.4 °C 34428.8 hPa ESE 27.7 km/h 27.7 km/h 78 % 0 mm
18:23 -6.2 °C -8.4 °C 34462.7 hPa East 15 km/h 15 km/h 78 % 0 mm
18:28 -6.2 °C -8.4 °C 34462.7 hPa East 17.9 km/h 17.9 km/h 78 % 0 mm
18:33 -6.2 °C -8.4 °C 34462.7 hPa ESE 15 km/h 15 km/h 78 % 0 mm
18:38 -6.2 °C -8.4 °C 34462.7 hPa East 20.9 km/h 20.9 km/h 78 % 0 mm
18:43 -6.2 °C -8.4 °C 34462.7 hPa ENE 17.9 km/h 17.9 km/h 78 % 0 mm
18:48 -6.2 °C -8.4 °C 34462.7 hPa SE 15 km/h 15 km/h 78 % 0 mm
18:53 -6.2 °C -8.4 °C 34462.7 hPa ESE 15 km/h 15 km/h 78 % 0 mm
18:58 -6.2 °C -8.4 °C 34462.7 hPa SE 19.2 km/h 19.2 km/h 78 % 0 mm
19:03 -6.3 °C -8.5 °C 34462.7 hPa East 17.9 km/h 17.9 km/h 78 % 0 mm
19:08 -6.3 °C -8.6 °C 34462.7 hPa East 20.9 km/h 20.9 km/h 78 % 0 mm
19:13 -6.3 °C -8.5 °C 34462.7 hPa East 17.9 km/h 17.9 km/h 78 % 0 mm
19:18 -6.3 °C -8.6 °C 34462.7 hPa NE 23.8 km/h 23.8 km/h 78 % 0 mm
19:23 -6.3 °C -8.4 °C 34462.7 hPa East 20.3 km/h 20.3 km/h 79 % 0 mm
19:28 -6.4 °C -8.5 °C 34462.7 hPa SE 18.3 km/h 18.3 km/h 79 % 0 mm
19:33 -6.4 °C -8.5 °C 34462.7 hPa NE 15.6 km/h 15.6 km/h 79 % 0 mm
19:38 -6.4 °C -8.6 °C 34462.7 hPa NNE 20.3 km/h 20.3 km/h 78 % 0 mm
19:43 -6.4 °C -8.7 °C 34462.7 hPa ENE 20.9 km/h 20.9 km/h 78 % 0 mm
19:48 -6.4 °C -8.7 °C 34462.7 hPa SE 17.9 km/h 17.9 km/h 78 % 0 mm
19:53 -6.4 °C -8.7 °C 34462.7 hPa ENE 20.9 km/h 20.9 km/h 78 % 0 mm
19:58 -6.5 °C -8.7 °C 34462.7 hPa ESE 20.9 km/h 20.9 km/h 78 % 0 mm
20:03 -6.5 °C -8.7 °C 34462.7 hPa ESE 17.9 km/h 17.9 km/h 78 % 0 mm
20:08 -6.5 °C -8.7 °C 34462.7 hPa East 15 km/h 15 km/h 78 % 0 mm
20:13 -6.5 °C -8.7 °C 34462.7 hPa NE 15 km/h 15 km/h 78 % 0 mm
20:18 -6.6 °C -8.8 °C 34462.7 hPa ESE 14 km/h 14 km/h 78 % 0 mm
20:20 -7 °C -9.1 °C 34462.7 hPa North 2.6 km/h 2.6 km/h 79 % 0 mm
20:23 -6.6 °C -8.8 °C 34462.7 hPa East 11.1 km/h 11.1 km/h 78 % 0 mm
20:28 -6.6 °C -8.8 °C 34462.7 hPa ESE 11.9 km/h 11.9 km/h 78 % 0 mm
20:29 -6.6 °C -8.8 °C 34462.7 hPa SE 9 km/h 9 km/h 78 % 0 mm
20:30 -7.1 °C -9.1 °C 34462.7 hPa Calm   5.1 km/h 80 % 0 mm
20:34 -6.6 °C -8.8 °C 34462.7 hPa SE 15.3 km/h 15.3 km/h 78 % 0 mm
20:39 -6.6 °C -8.8 °C 34462.7 hPa ENE 11.9 km/h 11.9 km/h 78 % 0 mm
20:40 -7.2 °C -9.2 °C 34462.7 hPa Calm     80 % 0 mm
20:44 -6.6 °C -8.8 °C 34462.7 hPa SSE 12.7 km/h 12.7 km/h 78 % 0 mm
20:49 -6.6 °C -8.8 °C 34462.7 hPa ESE 11.9 km/h 11.9 km/h 78 % 0 mm
20:50 -7.3 °C -9 °C 34462.7 hPa Calm     82 % 0 mm
20:54 -6.6 °C -8.8 °C 34462.7 hPa ESE 11.9 km/h 11.9 km/h 77 % 0 mm
20:59 -6.6 °C -8.8 °C 34462.7 hPa East 20.9 km/h 20.9 km/h 77 % 0 mm
21:00 -7.4 °C -9.1 °C 34462.7 hPa Calm     82 % 0 mm
21:04 -6.6 °C -8.8 °C 34462.7 hPa SE 20.9 km/h 20.9 km/h 77 % 0 mm
21:09 -6.5 °C -8.8 °C 34462.7 hPa ENE 15 km/h 15 km/h 77 % 0 mm
21:10 -7.4 °C -9.2 °C 34462.7 hPa Calm     82 % 0 mm
21:14 -6.5 °C -8.8 °C 34462.7 hPa ESE 11.9 km/h 11.9 km/h 77 % 0 mm
21:19 -6.5 °C -8.8 °C 34462.7 hPa East 9 km/h 9 km/h 77 % 0 mm
21:20 -7.5 °C -9.1 °C 34462.7 hPa Calm     83 % 0 mm
21:24 -6.5 °C -8.8 °C 34462.7 hPa East 12.7 km/h 12.7 km/h 77 % 0 mm
21:29 -6.5 °C -8.8 °C 34462.7 hPa NE 11.9 km/h 11.9 km/h 77 % 0 mm
21:30 -7.6 °C -9.2 °C 34462.7 hPa Calm     83 % 0 mm
21:34 -6.6 °C -8.8 °C 34462.7 hPa East 6 km/h 6 km/h 77 % 0 mm
21:39 -6.6 °C -8.8 °C 34462.7 hPa NNE 3.7 km/h 3.7 km/h 77 % 0 mm
21:40 -7.7 °C -9.3 °C 34462.7 hPa NNE 2.6 km/h 5.1 km/h 83 % 0 mm
21:44 -6.6 °C -8.8 °C 34462.7 hPa NE 6 km/h 6 km/h 77 % 0 mm
21:45 -6.6 °C -8.8 °C 34462.7 hPa NE 6 km/h 6 km/h 77 % 0 mm
21:50 -6.6 °C -8.8 °C 34462.7 hPa Calm     77 % 0 mm
21:55 -6.6 °C -9 °C 34462.7 hPa ENE 3.1 km/h 3.7 km/h 76 % 0 mm
22:00 -6.6 °C -9 °C 34462.7 hPa NE 6 km/h 6 km/h 76 % 0 mm
22:05 -6.6 °C -9 °C 34462.7 hPa East 6 km/h 6 km/h 76 % 0 mm
22:10 -6.6 °C -8.8 °C 34462.7 hPa NE 9 km/h 9 km/h 77 % 0 mm
22:15 -6.6 °C -8.8 °C 34462.7 hPa NNE 9 km/h 9 km/h 77 % 0 mm
22:20 -6.6 °C -9.1 °C 34462.7 hPa NE 6 km/h 6 km/h 76 % 0 mm
22:25 -6.6 °C -9 °C 34496.6 hPa NE 3.1 km/h 3.1 km/h 76 % 0 mm
22:30 -6.6 °C -9 °C 34496.6 hPa NNE 6 km/h 6 km/h 76 % 0 mm
22:35 -6.6 °C -9 °C 34496.6 hPa East 4.2 km/h 4.2 km/h 76 % 0 mm
22:40 -6.6 °C -9 °C 34496.6 hPa East 6 km/h 6 km/h 76 % 0 mm
22:45 -6.6 °C -9 °C 34496.6 hPa ESE 3.1 km/h 3.1 km/h 76 % 0 mm
22:50 -6.6 °C -8.8 °C 34496.6 hPa WSW 3.1 km/h 3.1 km/h 77 % 0 mm
22:55 -6.6 °C -8.9 °C 34496.6 hPa WSW 4.2 km/h 4.2 km/h 77 % 0 mm
23:00 -6.6 °C -8.9 °C 34496.6 hPa WSW 3.7 km/h 3.7 km/h 77 % 0 mm
23:05 -6.7 °C -9 °C 34496.6 hPa Calm     77 % 0 mm
23:10 -6.7 °C -8.8 °C 34462.7 hPa Calm     78 % 0 mm
23:15 -6.7 °C -8.8 °C 34462.7 hPa Calm     78 % 0 mm
23:20 -6.7 °C -8.8 °C 34462.7 hPa NNE 6 km/h 6 km/h 78 % 0 mm
23:25 -6.7 °C -8.9 °C 34462.7 hPa NNE 3.1 km/h 3.1 km/h 78 % 0 mm
23:30 -6.7 °C -8.9 °C 34462.7 hPa North 3.1 km/h   78 % 0 mm
23:35 -6.8 °C -9 °C 34462.7 hPa NNE 3.1 km/h   78 % 0 mm
23:40 -6.8 °C -9 °C 34462.7 hPa NNE 6 km/h 6 km/h 78 % 0 mm
23:45 -6.8 °C -9 °C 34462.7 hPa NNE 3.7 km/h 3.7 km/h 78 % 0 mm
23:50 -6.8 °C -9 °C 34462.7 hPa Calm     78 % 0 mm
23:55 -6.8 °C -9 °C 34462.7 hPa NNE 3.1 km/h   78 % 0 mm
Meteo Sesrovires
Elogis d' Weather Underground - 1.5 mb

Guio original per  Jim McMurry - jmcmurry@mwt.net Adaptat per a la plantilla per  Wim van der Kuil - Leuven-Template.eu

Trobareu la nostra informacio del temps tambe a:

Weather Underground

AWEKAS